Flight Track Log - Related Links

Times and Time Zones

All times are in EDT time to prevent confusion due to time zone crossing. See the WEW1540 flight status page for this flight to view local times or setup timezone preferences in your user account.

Time Position Orientation Groundspeed Altitude Reporting Facility
EDT Latitude Longitude Course Direction KTS MPH feet Rate Location/Type
Mon 07:08:08 PM 51.3000 -108.9667 143° Southeast 140 161 8,600  Level Winnipeg Center
Mon 07:09:00 PM 51.2268 -108.8180 143° Southeast  Level Estimated
Mon 07:09:08 PM 51.2667 -108.9167 137° Southeast 170 196 9,000  Level Winnipeg Center
Mon 07:10:00 PM 51.1901 -108.7734 143° Southeast  Level FlightAware
Mon 07:10:08 PM 51.2333 -108.8667 137° Southeast 180 207 9,000  Level Winnipeg Center
Mon 07:11:00 PM 51.1535 -108.7289 143° Southeast  Level FlightAware
Mon 07:11:08 PM 51.1833 -108.8333 157° South 190 219 9,000  Level Winnipeg Center
Mon 07:12:00 PM 51.1168 -108.6844 143° Southeast  Level FlightAware
Mon 07:12:08 PM 51.1333 -108.7833 148° Southeast 200 230 9,000  Level Winnipeg Center
Mon 07:13:00 PM 51.0802 -108.6401 143° Southeast  Level FlightAware
Mon 07:13:08 PM 51.0833 -108.7333 148° Southeast 190 219 9,000  Level Winnipeg Center
Mon 07:14:08 PM 51.0500 -108.6833 137° Southeast 200 230 9,100 50 Climbing Winnipeg Center
Mon 07:15:08 PM 51.0000 -108.6167 140° Southeast 200 230 9,100  Level Winnipeg Center
Mon 07:16:08 PM 50.9667 -108.5667 137° Southeast 190 219 9,100 -50 Level Winnipeg Center
Mon 07:17:08 PM 50.9333 -108.5000 128° Southeast 200 230 9,000  Descending Winnipeg Center
Mon 07:18:08 PM 50.9000 -108.4333 128° Southeast 200 230 9,100 50 Climbing Winnipeg Center
Mon 07:19:08 PM 50.8333 -108.4000 162° South 200 230 9,100  Level Winnipeg Center
Mon 07:21:00 PM 50.7681 -108.3113 139° Southeast  Level FlightAware
Mon 07:28:00 PM 50.5230 -107.9808 139° Southeast  Level FlightAware
Mon 07:29:00 PM 50.4873 -107.9322 138° Southeast  Level FlightAware
Mon 07:30:00 PM 50.4529 -107.8840 138° Southeast  Level FlightAware
Mon 07:31:00 PM 50.4185 -107.8359 138° Southeast  Level FlightAware
Mon 07:32:00 PM 50.3813 -107.7934 144° Southeast  Level FlightAware
Mon 07:33:00 PM 50.3439 -107.7513 144° Southeast  Level FlightAware
Mon 07:34:00 PM 50.3064 -107.7093 144° Southeast  Level FlightAware
Mon 07:35:00 PM 50.2919 -107.6906 144° Southeast  Level Estimated
Mon 07:36:00 PM 50.2919 -107.6906 144° Southeast  Level Estimated
Mon 07:37:00 PM 50.2919 -107.6906 144° Southeast  Level Estimated
Mon 07:38:00 PM 50.2919 -107.6906 144° Southeast  Level Estimated
Mon 07:39:00 PM 50.2919 -107.6906 144° Southeast  Level Estimated

Login

Don't have an account? Register now (free) for customized features, flight alerts, and more!